sensor_id;sensor_type;location;lat;lon;timestamp;pressure;altitude;pressure_sealevel;temperature;humidity
73651;BME280;61944;52.538;6.108;2023-04-15T00:00:21;100811.06;;;8.55;86.82
73651;BME280;61944;52.538;6.108;2023-04-15T00:02:47;100819.41;;;8.55;86.96
73651;BME280;61944;52.538;6.108;2023-04-15T00:05:12;100820.16;;;8.52;86.44
73651;BME280;61944;52.538;6.108;2023-04-15T00:07:37;100812.41;;;8.45;87.61
73651;BME280;61944;52.538;6.108;2023-04-15T00:10:04;100817.94;;;8.42;87.32
73651;BME280;61944;52.538;6.108;2023-04-15T00:12:30;100816.75;;;8.43;87.36
73651;BME280;61944;52.538;6.108;2023-04-15T00:14:55;100821.91;;;8.41;86.67
73651;BME280;61944;52.538;6.108;2023-04-15T00:17:21;100817.03;;;8.38;87.11
73651;BME280;61944;52.538;6.108;2023-04-15T00:19:46;100816.13;;;8.33;87.59
73651;BME280;61944;52.538;6.108;2023-04-15T00:22:12;100824.06;;;8.31;87.08
73651;BME280;61944;52.538;6.108;2023-04-15T00:24:38;100817.50;;;8.24;86.93
73651;BME280;61944;52.538;6.108;2023-04-15T00:27:04;100830.28;;;8.25;87.47
73651;BME280;61944;52.538;6.108;2023-04-15T00:29:29;100826.25;;;8.22;87.81
73651;BME280;61944;52.538;6.108;2023-04-15T00:31:55;100830.50;;;8.16;88.08
73651;BME280;61944;52.538;6.108;2023-04-15T00:34:24;100826.88;;;8.15;87.97
73651;BME280;61944;52.538;6.108;2023-04-15T00:36:49;100817.63;;;8.11;88.26
73651;BME280;61944;52.538;6.108;2023-04-15T00:39:15;100817.38;;;8.01;88.84
73651;BME280;61944;52.538;6.108;2023-04-15T00:41:42;100827.44;;;8.05;88.06
73651;BME280;61944;52.538;6.108;2023-04-15T00:44:07;100828.91;;;7.99;88.90
73651;BME280;61944;52.538;6.108;2023-04-15T00:46:40;100832.03;;;7.98;89.21
73651;BME280;61944;52.538;6.108;2023-04-15T00:49:07;100834.47;;;7.99;88.63
73651;BME280;61944;52.538;6.108;2023-04-15T00:51:33;100808.69;;;7.86;89.13
73651;BME280;61944;52.538;6.108;2023-04-15T00:54:02;100828.72;;;7.92;89.41
73651;BME280;61944;52.538;6.108;2023-04-15T00:56:28;100828.25;;;7.90;89.82
73651;BME280;61944;52.538;6.108;2023-04-15T00:58:54;100826.22;;;7.87;90.45
73651;BME280;61944;52.538;6.108;2023-04-15T01:01:20;100822.88;;;7.81;90.04
73651;BME280;61944;52.538;6.108;2023-04-15T01:03:48;100828.44;;;7.81;90.43
73651;BME280;61944;52.538;6.108;2023-04-15T01:06:14;100811.00;;;7.68;90.76
73651;BME280;61944;52.538;6.108;2023-04-15T01:08:40;100831.50;;;7.76;90.58
73651;BME280;61944;52.538;6.108;2023-04-15T01:11:06;100812.19;;;7.67;90.75
73651;BME280;61944;52.538;6.108;2023-04-15T01:13:32;100833.03;;;7.73;91.35
73651;BME280;61944;52.538;6.108;2023-04-15T01:15:58;100832.56;;;7.71;91.58
73651;BME280;61944;52.538;6.108;2023-04-15T01:18:23;100834.75;;;7.62;91.54
73651;BME280;61944;52.538;6.108;2023-04-15T01:20:49;100841.56;;;7.65;91.48
73651;BME280;61944;52.538;6.108;2023-04-15T01:23:15;100842.91;;;7.55;92.05
73651;BME280;61944;52.538;6.108;2023-04-15T01:25:42;100836.16;;;7.56;92.02
73651;BME280;61944;52.538;6.108;2023-04-15T01:28:08;100828.53;;;7.53;92.08
73651;BME280;61944;52.538;6.108;2023-04-15T01:30:35;100834.13;;;7.53;91.61
73651;BME280;61944;52.538;6.108;2023-04-15T01:33:00;100842.09;;;7.54;91.66
73651;BME280;61944;52.538;6.108;2023-04-15T01:35:26;100837.16;;;7.48;92.38
73651;BME280;61944;52.538;6.108;2023-04-15T01:37:52;100835.53;;;7.47;91.84
73651;BME280;61944;52.538;6.108;2023-04-15T01:40:18;100837.06;;;7.44;92.31
73651;BME280;61944;52.538;6.108;2023-04-15T01:42:44;100836.97;;;7.41;92.17
73651;BME280;61944;52.538;6.108;2023-04-15T01:45:10;100843.88;;;7.31;93.15
73651;BME280;61944;52.538;6.108;2023-04-15T01:47:36;100838.41;;;7.35;92.48
73651;BME280;61944;52.538;6.108;2023-04-15T01:50:02;100837.03;;;7.28;93.33
73651;BME280;61944;52.538;6.108;2023-04-15T01:52:27;100840.63;;;7.29;92.92
73651;BME280;61944;52.538;6.108;2023-04-15T01:54:52;100842.94;;;7.27;92.96
73651;BME280;61944;52.538;6.108;2023-04-15T01:57:18;100842.94;;;7.27;93.48
73651;BME280;61944;52.538;6.108;2023-04-15T01:59:43;100843.69;;;7.24;93.50
73651;BME280;61944;52.538;6.108;2023-04-15T02:02:08;100845.56;;;7.20;93.55
73651;BME280;61944;52.538;6.108;2023-04-15T02:04:34;100846.72;;;7.19;92.74
73651;BME280;61944;52.538;6.108;2023-04-15T02:07:00;100835.66;;;7.06;93.83
73651;BME280;61944;52.538;6.108;2023-04-15T02:09:25;100849.56;;;7.06;94.21
73651;BME280;61944;52.538;6.108;2023-04-15T02:11:51;100854.22;;;7.02;94.60
73651;BME280;61944;52.538;6.108;2023-04-15T02:14:17;100855.47;;;7.05;94.52
73651;BME280;61944;52.538;6.108;2023-04-15T02:16:43;100863.72;;;7.01;94.62
73651;BME280;61944;52.538;6.108;2023-04-15T02:19:08;100855.84;;;7.03;94.34
73651;BME280;61944;52.538;6.108;2023-04-15T02:21:34;100846.03;;;6.94;95.06
73651;BME280;61944;52.538;6.108;2023-04-15T02:23:59;100861.66;;;6.98;95.00
73651;BME280;61944;52.538;6.108;2023-04-15T02:26:26;100865.84;;;6.92;95.12
73651;BME280;61944;52.538;6.108;2023-04-15T02:28:52;100865.06;;;6.91;95.91
73651;BME280;61944;52.538;6.108;2023-04-15T02:31:17;100863.75;;;6.89;95.53
73651;BME280;61944;52.538;6.108;2023-04-15T02:33:42;100875.28;;;6.87;95.17
73651;BME280;61944;52.538;6.108;2023-04-15T02:36:08;100869.25;;;6.85;95.35
73651;BME280;61944;52.538;6.108;2023-04-15T02:38:35;100872.03;;;6.85;95.26
73651;BME280;61944;52.538;6.108;2023-04-15T02:41:02;100862.44;;;6.70;96.77
73651;BME280;61944;52.538;6.108;2023-04-15T02:43:27;100880.94;;;6.79;96.15
73651;BME280;61944;52.538;6.108;2023-04-15T02:45:52;100875.31;;;6.75;96.22
73651;BME280;61944;52.538;6.108;2023-04-15T02:48:18;100873.59;;;6.70;95.75
73651;BME280;61944;52.538;6.108;2023-04-15T02:50:45;100881.94;;;6.70;96.24
73651;BME280;61944;52.538;6.108;2023-04-15T02:53:10;100892.34;;;6.74;96.28
73651;BME280;61944;52.538;6.108;2023-04-15T02:55:37;100892.22;;;6.70;95.71
73651;BME280;61944;52.538;6.108;2023-04-15T02:58:02;100894.47;;;6.64;96.34
73651;BME280;61944;52.538;6.108;2023-04-15T03:00:28;100888.06;;;6.64;95.99
73651;BME280;61944;52.538;6.108;2023-04-15T03:03:03;100897.91;;;6.61;96.40
73651;BME280;61944;52.538;6.108;2023-04-15T03:05:29;100899.09;;;6.60;96.25
73651;BME280;61944;52.538;6.108;2023-04-15T03:07:55;100891.44;;;6.57;97.19
73651;BME280;61944;52.538;6.108;2023-04-15T03:10:20;100886.00;;;6.48;97.04
73651;BME280;61944;52.538;6.108;2023-04-15T03:12:46;100885.09;;;6.44;98.17
73651;BME280;61944;52.538;6.108;2023-04-15T03:15:11;100892.50;;;6.53;98.67
73651;BME280;61944;52.538;6.108;2023-04-15T03:17:37;100897.25;;;6.52;98.06
73651;BME280;61944;52.538;6.108;2023-04-15T03:20:03;100896.00;;;6.49;98.48
73651;BME280;61944;52.538;6.108;2023-04-15T03:22:32;100889.13;;;6.47;98.28
73651;BME280;61944;52.538;6.108;2023-04-15T03:24:58;100899.78;;;6.45;98.02
73651;BME280;61944;52.538;6.108;2023-04-15T03:27:24;100909.91;;;6.49;97.93
73651;BME280;61944;52.538;6.108;2023-04-15T03:29:50;100905.72;;;6.43;98.34
73651;BME280;61944;52.538;6.108;2023-04-15T03:32:16;100902.81;;;6.40;98.17
73651;BME280;61944;52.538;6.108;2023-04-15T03:34:42;100916.25;;;6.38;98.52
73651;BME280;61944;52.538;6.108;2023-04-15T03:37:07;100917.06;;;6.38;98.77
73651;BME280;61944;52.538;6.108;2023-04-15T03:39:33;100924.59;;;6.38;99.30
73651;BME280;61944;52.538;6.108;2023-04-15T03:41:59;100917.19;;;6.29;100.00
73651;BME280;61944;52.538;6.108;2023-04-15T03:44:27;100926.44;;;6.34;100.00
73651;BME280;61944;52.538;6.108;2023-04-15T03:46:53;100925.19;;;6.31;100.00
73651;BME280;61944;52.538;6.108;2023-04-15T03:49:19;100936.19;;;6.27;100.00
73651;BME280;61944;52.538;6.108;2023-04-15T03:51:44;100931.22;;;6.21;100.00
73651;BME280;61944;52.538;6.108;2023-04-15T03:54:10;100917.09;;;6.14;100.00
73651;BME280;61944;52.538;6.108;2023-04-15T03:56:37;100927.38;;;6.25;100.00
73651;BME280;61944;52.538;6.108;2023-04-15T03:59:02;100935.25;;;6.23;100.00
73651;BME280;61944;52.538;6.108;2023-04-15T04:01:27;100940.81;;;6.23;100.00
73651;BME280;61944;52.538;6.108;2023-04-15T04:03:53;100930.63;;;6.15;100.00
73651;BME280;61944;52.538;6.108;2023-04-15T04:06:18;100950.31;;;6.22;100.00
73651;BME280;61944;52.538;6.108;2023-04-15T04:08:44;100946.94;;;6.17;100.00
73651;BME280;61944;52.538;6.108;2023-04-15T04:11:09;100958.88;;;6.17;100.00
73651;BME280;61944;52.538;6.108;2023-04-15T04:13:34;100958.41;;;6.15;100.00
73651;BME280;61944;52.538;6.108;2023-04-15T04:16:00;100956.81;;;6.14;100.00
73651;BME280;61944;52.538;6.108;2023-04-15T04:18:25;100956.81;;;6.14;100.00
73651;BME280;61944;52.538;6.108;2023-04-15T04:20:51;100950.91;;;6.16;100.00
73651;BME280;61944;52.538;6.108;2023-04-15T04:23:16;100958.41;;;6.15;100.00
73651;BME280;61944;52.538;6.108;2023-04-15T04:25:41;100961.09;;;6.12;100.00
73651;BME280;61944;52.538;6.108;2023-04-15T04:28:07;100955.75;;;6.06;100.00
73651;BME280;61944;52.538;6.108;2023-04-15T04:30:34;100957.72;;;6.06;100.00
73651;BME280;61944;52.538;6.108;2023-04-15T04:32:59;100960.50;;;6.06;100.00
73651;BME280;61944;52.538;6.108;2023-04-15T04:35:25;100958.84;;;6.05;100.00
73651;BME280;61944;52.538;6.108;2023-04-15T04:37:51;100947.59;;;5.89;100.00
73651;BME280;61944;52.538;6.108;2023-04-15T04:40:18;100975.75;;;6.00;100.00
73651;BME280;61944;52.538;6.108;2023-04-15T04:42:43;100964.59;;;5.87;100.00
73651;BME280;61944;52.538;6.108;2023-04-15T04:45:08;100972.34;;;5.94;100.00
73651;BME280;61944;52.538;6.108;2023-04-15T04:47:34;100985.94;;;5.96;100.00
73651;BME280;61944;52.538;6.108;2023-04-15T04:49:59;100974.66;;;5.92;100.00
73651;BME280;61944;52.538;6.108;2023-04-15T04:52:25;100987.28;;;5.89;100.00
73651;BME280;61944;52.538;6.108;2023-04-15T04:54:50;100993.31;;;5.91;100.00
73651;BME280;61944;52.538;6.108;2023-04-15T04:57:15;100998.06;;;5.91;100.00
73651;BME280;61944;52.538;6.108;2023-04-15T04:59:41;100998.41;;;5.89;100.00
73651;BME280;61944;52.538;6.108;2023-04-15T05:02:06;100995.94;;;5.88;100.00
73651;BME280;61944;52.538;6.108;2023-04-15T05:04:32;101001.16;;;5.89;100.00
73651;BME280;61944;52.538;6.108;2023-04-15T05:06:57;100984.47;;;5.77;100.00
73651;BME280;61944;52.538;6.108;2023-04-15T05:09:23;101003.00;;;5.85;100.00
73651;BME280;61944;52.538;6.108;2023-04-15T05:11:49;101000.94;;;5.82;100.00
73651;BME280;61944;52.538;6.108;2023-04-15T05:14:14;101006.25;;;5.87;100.00
73651;BME280;61944;52.538;6.108;2023-04-15T05:16:39;101007.44;;;5.86;100.00
73651;BME280;61944;52.538;6.108;2023-04-15T05:19:05;101015.06;;;5.89;100.00
73651;BME280;61944;52.538;6.108;2023-04-15T05:21:31;101024.19;;;5.90;100.00
73651;BME280;61944;52.538;6.108;2023-04-15T05:23:57;101016.56;;;5.87;100.00
73651;BME280;61944;52.538;6.108;2023-04-15T05:26:22;101028.47;;;5.87;100.00
73651;BME280;61944;52.538;6.108;2023-04-15T05:28:48;101035.31;;;5.90;100.00
73651;BME280;61944;52.538;6.108;2023-04-15T05:31:14;101033.72;;;5.89;100.00
73651;BME280;61944;52.538;6.108;2023-04-15T05:33:39;101020.63;;;5.89;100.00
73651;BME280;61944;52.538;6.108;2023-04-15T05:36:05;101030.41;;;5.96;100.00
73651;BME280;61944;52.538;6.108;2023-04-15T05:38:31;101024.66;;;5.92;100.00
73651;BME280;61944;52.538;6.108;2023-04-15T05:40:56;101025.78;;;6.00;100.00
73651;BME280;61944;52.538;6.108;2023-04-15T05:43:22;101023.47;;;6.02;100.00
73651;BME280;61944;52.538;6.108;2023-04-15T05:45:47;101008.41;;;6.03;100.00
73651;BME280;61944;52.538;6.108;2023-04-15T05:48:12;101019.78;;;6.10;100.00
73651;BME280;61944;52.538;6.108;2023-04-15T05:50:40;101029.25;;;6.09;100.00
73651;BME280;61944;52.538;6.108;2023-04-15T05:53:07;101018.84;;;6.06;100.00
73651;BME280;61944;52.538;6.108;2023-04-15T05:55:32;101046.78;;;6.22;100.00
73651;BME280;61944;52.538;6.108;2023-04-15T05:57:57;101042.06;;;6.22;100.00
73651;BME280;61944;52.538;6.108;2023-04-15T06:00:23;101042.38;;;6.21;100.00
73651;BME280;61944;52.538;6.108;2023-04-15T06:02:48;101049.56;;;6.22;100.00
73651;BME280;61944;52.538;6.108;2023-04-15T06:05:14;101052.13;;;6.27;100.00
73651;BME280;61944;52.538;6.108;2023-04-15T06:07:39;101052.81;;;6.24;100.00
73651;BME280;61944;52.538;6.108;2023-04-15T06:10:05;101042.81;;;6.10;100.00
73651;BME280;61944;52.538;6.108;2023-04-15T06:12:32;101058.50;;;6.27;100.00
73651;BME280;61944;52.538;6.108;2023-04-15T06:14:57;101076.44;;;6.18;100.00
73651;BME280;61944;52.538;6.108;2023-04-15T06:17:22;101073.06;;;6.12;100.00
73651;BME280;61944;52.538;6.108;2023-04-15T06:19:48;101082.56;;;6.23;100.00
73651;BME280;61944;52.538;6.108;2023-04-15T06:22:15;101084.44;;;6.31;100.00
73651;BME280;61944;52.538;6.108;2023-04-15T06:24:41;101095.38;;;6.37;100.00
73651;BME280;61944;52.538;6.108;2023-04-15T06:27:06;101097.31;;;6.36;100.00
73651;BME280;61944;52.538;6.108;2023-04-15T06:29:32;101095.81;;;6.39;100.00
73651;BME280;61944;52.538;6.108;2023-04-15T06:31:57;101105.44;;;6.41;100.00
73651;BME280;61944;52.538;6.108;2023-04-15T06:34:22;101114.72;;;6.45;100.00
73651;BME280;61944;52.538;6.108;2023-04-15T06:36:48;101105.78;;;6.40;100.00
73651;BME280;61944;52.538;6.108;2023-04-15T06:39:13;101116.00;;;6.48;100.00
73651;BME280;61944;52.538;6.108;2023-04-15T06:41:38;101131.31;;;6.54;100.00
73651;BME280;61944;52.538;6.108;2023-04-15T06:44:04;101135.72;;;6.55;100.00
73651;BME280;61944;52.538;6.108;2023-04-15T06:46:29;101141.28;;;6.55;100.00
73651;BME280;61944;52.538;6.108;2023-04-15T06:48:55;101143.38;;;6.58;100.00
73651;BME280;61944;52.538;6.108;2023-04-15T06:51:21;101129.47;;;6.58;100.00
73651;BME280;61944;52.538;6.108;2023-04-15T06:53:48;101148.28;;;6.74;100.00
73651;BME280;61944;52.538;6.108;2023-04-15T06:56:13;101134.47;;;6.65;100.00
73651;BME280;61944;52.538;6.108;2023-04-15T06:58:39;101152.91;;;6.69;100.00
73651;BME280;61944;52.538;6.108;2023-04-15T07:01:04;101143.50;;;6.74;100.00
73651;BME280;61944;52.538;6.108;2023-04-15T07:03:30;101148.41;;;6.77;100.00
73651;BME280;61944;52.538;6.108;2023-04-15T07:05:55;101157.44;;;6.86;100.00
73651;BME280;61944;52.538;6.108;2023-04-15T07:08:21;101149.44;;;6.85;100.00
73651;BME280;61944;52.538;6.108;2023-04-15T07:10:47;101159.19;;;6.91;100.00
73651;BME280;61944;52.538;6.108;2023-04-15T07:13:12;101165.84;;;7.23;100.00
73651;BME280;61944;52.538;6.108;2023-04-15T07:15:38;101137.28;;;6.89;100.00
73651;BME280;61944;52.538;6.108;2023-04-15T07:18:03;101163.38;;;6.97;100.00
73651;BME280;61944;52.538;6.108;2023-04-15T07:20:29;101157.59;;;7.02;100.00
73651;BME280;61944;52.538;6.108;2023-04-15T07:22:54;101168.59;;;6.99;100.00
73651;BME280;61944;52.538;6.108;2023-04-15T07:25:20;101171.03;;;7.00;100.00
73651;BME280;61944;52.538;6.108;2023-04-15T07:27:45;101170.00;;;7.05;100.00
73651;BME280;61944;52.538;6.108;2023-04-15T07:30:11;101170.81;;;7.05;100.00
73651;BME280;61944;52.538;6.108;2023-04-15T07:32:37;101169.75;;;7.10;100.00
73651;BME280;61944;52.538;6.108;2023-04-15T07:35:02;101175.22;;;7.19;100.00
73651;BME280;61944;52.538;6.108;2023-04-15T07:37:28;101180.22;;;7.13;100.00
73651;BME280;61944;52.538;6.108;2023-04-15T07:39:54;101178.81;;;7.31;100.00
73651;BME280;61944;52.538;6.108;2023-04-15T07:42:20;101186.59;;;7.38;100.00
73651;BME280;61944;52.538;6.108;2023-04-15T07:44:46;101188.00;;;7.44;100.00
73651;BME280;61944;52.538;6.108;2023-04-15T07:47:11;101178.22;;;7.50;100.00
73651;BME280;61944;52.538;6.108;2023-04-15T07:49:37;101194.91;;;7.63;100.00
73651;BME280;61944;52.538;6.108;2023-04-15T07:52:02;101188.06;;;7.72;100.00
73651;BME280;61944;52.538;6.108;2023-04-15T07:54:28;101195.69;;;7.88;100.00
73651;BME280;61944;52.538;6.108;2023-04-15T07:56:53;101196.50;;;7.88;100.00
73651;BME280;61944;52.538;6.108;2023-04-15T07:59:18;101194.59;;;8.05;100.00
73651;BME280;61944;52.538;6.108;2023-04-15T08:01:44;101192.69;;;8.21;100.00
73651;BME280;61944;52.538;6.108;2023-04-15T08:04:09;101202.63;;;8.34;100.00
73651;BME280;61944;52.538;6.108;2023-04-15T08:06:35;101203.47;;;8.35;100.00
73651;BME280;61944;52.538;6.108;2023-04-15T08:09:04;101210.19;;;8.34;100.00
73651;BME280;61944;52.538;6.108;2023-04-15T08:11:29;101207.88;;;8.36;100.00
73651;BME280;61944;52.538;6.108;2023-04-15T08:13:55;101207.72;;;8.45;100.00
73651;BME280;61944;52.538;6.108;2023-04-15T08:16:22;101210.44;;;8.41;100.00
73651;BME280;61944;52.538;6.108;2023-04-15T08:18:49;101217.69;;;8.58;100.00
73651;BME280;61944;52.538;6.108;2023-04-15T08:21:16;101217.88;;;8.65;100.00
73651;BME280;61944;52.538;6.108;2023-04-15T08:23:42;101212.28;;;8.65;100.00
73651;BME280;61944;52.538;6.108;2023-04-15T08:26:08;101225.06;;;8.66;100.00
73651;BME280;61944;52.538;6.108;2023-04-15T08:28:33;101219.59;;;8.70;100.00
73651;BME280;61944;52.538;6.108;2023-04-15T08:30:59;101222.72;;;8.68;100.00
73651;BME280;61944;52.538;6.108;2023-04-15T08:33:25;101226.19;;;8.78;100.00
73651;BME280;61944;52.538;6.108;2023-04-15T08:35:50;101230.06;;;8.89;100.00
73651;BME280;61944;52.538;6.108;2023-04-15T08:38:16;101230.41;;;8.87;100.00
73651;BME280;61944;52.538;6.108;2023-04-15T08:40:43;101229.84;;;8.94;100.00
73651;BME280;61944;52.538;6.108;2023-04-15T08:43:10;101241.19;;;9.01;100.00
73651;BME280;61944;52.538;6.108;2023-04-15T08:45:40;101242.06;;;9.21;100.00
73651;BME280;61944;52.538;6.108;2023-04-15T08:48:06;101242.38;;;9.32;100.00
73651;BME280;61944;52.538;6.108;2023-04-15T08:50:34;101244.88;;;9.37;100.00
73651;BME280;61944;52.538;6.108;2023-04-15T08:53:00;101248.03;;;9.35;100.00
73651;BME280;61944;52.538;6.108;2023-04-15T08:55:32;101247.41;;;9.42;100.00
73651;BME280;61944;52.538;6.108;2023-04-15T08:58:01;101246.50;;;9.38;100.00
73651;BME280;61944;52.538;6.108;2023-04-15T09:00:30;101247.50;;;9.62;100.00
73651;BME280;61944;52.538;6.108;2023-04-15T09:02:55;101253.34;;;9.72;100.00
73651;BME280;61944;52.538;6.108;2023-04-15T09:05:21;101247.00;;;9.75;100.00
73651;BME280;61944;52.538;6.108;2023-04-15T09:07:47;101252.00;;;9.50;100.00
73651;BME280;61944;52.538;6.108;2023-04-15T09:10:13;101256.13;;;9.56;100.00
73651;BME280;61944;52.538;6.108;2023-04-15T09:12:38;101253.88;;;9.62;100.00
73651;BME280;61944;52.538;6.108;2023-04-15T09:15:04;101266.41;;;9.68;100.00
73651;BME280;61944;52.538;6.108;2023-04-15T09:17:32;101261.53;;;9.81;100.00
73651;BME280;61944;52.538;6.108;2023-04-15T09:20:11;101266.72;;;9.98;100.00
73651;BME280;61944;52.538;6.108;2023-04-15T09:22:41;101277.19;;;10.02;100.00
73651;BME280;61944;52.538;6.108;2023-04-15T09:25:27;101276.63;;;10.12;100.00
73651;BME280;61944;52.538;6.108;2023-04-15T09:27:59;101289.97;;;10.03;100.00
73651;BME280;61944;52.538;6.108;2023-04-15T09:30:27;101282.50;;;10.26;100.00
73651;BME280;61944;52.538;6.108;2023-04-15T09:32:53;101290.75;;;10.54;100.00
73651;BME280;61944;52.538;6.108;2023-04-15T09:35:19;101286.56;;;10.64;100.00
73651;BME280;61944;52.538;6.108;2023-04-15T09:37:46;101294.22;;;10.67;99.92
73651;BME280;61944;52.538;6.108;2023-04-15T09:40:12;101291.16;;;10.37;100.00
73651;BME280;61944;52.538;6.108;2023-04-15T09:42:54;101299.22;;;10.38;100.00
73651;BME280;61944;52.538;6.108;2023-04-15T09:45:21;101296.16;;;10.28;100.00
73651;BME280;61944;52.538;6.108;2023-04-15T09:47:46;101302.31;;;10.33;100.00
73651;BME280;61944;52.538;6.108;2023-04-15T09:50:11;101309.25;;;10.40;100.00
73651;BME280;61944;52.538;6.108;2023-04-15T09:52:43;101308.22;;;10.67;99.39
73651;BME280;61944;52.538;6.108;2023-04-15T09:55:09;101307.84;;;10.88;98.77
73651;BME280;61944;52.538;6.108;2023-04-15T09:57:36;101325.47;;;10.69;99.64
73651;BME280;61944;52.538;6.108;2023-04-15T10:00:06;101314.19;;;10.46;100.00
73651;BME280;61944;52.538;6.108;2023-04-15T10:02:33;101316.28;;;10.33;100.00
73651;BME280;61944;52.538;6.108;2023-04-15T10:04:59;101319.09;;;10.17;100.00
73651;BME280;61944;52.538;6.108;2023-04-15T10:07:25;101322.53;;;10.27;100.00
73651;BME280;61944;52.538;6.108;2023-04-15T10:09:51;101328.47;;;10.25;100.00
73651;BME280;61944;52.538;6.108;2023-04-15T10:12:18;101329.09;;;10.34;100.00
73651;BME280;61944;52.538;6.108;2023-04-15T10:14:49;101332.88;;;10.26;100.00
73651;BME280;61944;52.538;6.108;2023-04-15T10:17:17;101337.66;;;10.26;100.00
73651;BME280;61944;52.538;6.108;2023-04-15T10:19:47;101339.13;;;10.35;100.00
73651;BME280;61944;52.538;6.108;2023-04-15T10:22:13;101338.25;;;10.51;100.00
73651;BME280;61944;52.538;6.108;2023-04-15T10:24:38;101340.16;;;10.47;100.00
73651;BME280;61944;52.538;6.108;2023-04-15T10:27:04;101342.97;;;10.47;100.00
73651;BME280;61944;52.538;6.108;2023-04-15T10:29:30;101345.91;;;10.54;100.00
73651;BME280;61944;52.538;6.108;2023-04-15T10:31:56;101342.06;;;10.43;100.00
73651;BME280;61944;52.538;6.108;2023-04-15T10:34:23;101346.78;;;10.38;100.00
73651;BME280;61944;52.538;6.108;2023-04-15T10:36:49;101349.56;;;10.38;100.00
73651;BME280;61944;52.538;6.108;2023-04-15T10:44:32;101341.28;;;10.26;100.00
73651;BME280;61944;52.538;6.108;2023-04-15T10:46:58;101347.09;;;10.53;100.00
73651;BME280;61944;52.538;6.108;2023-04-15T10:49:24;101343.88;;;10.70;99.54
73651;BME280;61944;52.538;6.108;2023-04-15T10:51:51;101332.56;;;10.47;99.77
73651;BME280;61944;52.538;6.108;2023-04-15T10:57:07;101357.06;;;10.89;99.33
73651;BME280;61944;52.538;6.108;2023-04-15T10:59:59;101358.19;;;11.24;97.92
73651;BME280;61944;52.538;6.108;2023-04-15T11:02:41;101354.50;;;11.19;97.47
73651;BME280;61944;52.538;6.108;2023-04-15T11:05:07;101349.72;;;11.01;96.01
73651;BME280;61944;52.538;6.108;2023-04-15T11:12:39;101352.28;;;11.09;96.98
73651;BME280;61944;52.538;6.108;2023-04-15T11:15:39;101361.94;;;11.12;96.65
73651;BME280;61944;52.538;6.108;2023-04-15T11:18:12;101357.13;;;11.12;95.30
73651;BME280;61944;52.538;6.108;2023-04-15T11:20:58;101354.06;;;11.17;95.57
73651;BME280;61944;52.538;6.108;2023-04-15T11:23:38;101352.50;;;11.20;93.57
73651;BME280;61944;52.538;6.108;2023-04-15T11:26:06;101360.25;;;11.50;93.01
73651;BME280;61944;52.538;6.108;2023-04-15T11:28:34;101364.28;;;11.52;91.36
73651;BME280;61944;52.538;6.108;2023-04-15T11:31:14;101368.34;;;11.55;90.96
73651;BME280;61944;52.538;6.108;2023-04-15T11:33:56;101367.88;;;11.72;91.46
73651;BME280;61944;52.538;6.108;2023-04-15T11:36:27;101374.91;;;11.63;91.21
73651;BME280;61944;52.538;6.108;2023-04-15T11:38:53;101387.59;;;11.56;90.67
73651;BME280;61944;52.538;6.108;2023-04-15T11:41:20;101382.25;;;11.48;88.86
73651;BME280;61944;52.538;6.108;2023-04-15T11:43:46;101382.69;;;11.50;90.08
73651;BME280;61944;52.538;6.108;2023-04-15T11:46:12;101389.72;;;11.63;89.70
73651;BME280;61944;52.538;6.108;2023-04-15T11:48:42;101389.25;;;11.57;90.46
73651;BME280;61944;52.538;6.108;2023-04-15T11:51:08;101383.63;;;11.57;90.16
73651;BME280;61944;52.538;6.108;2023-04-15T11:53:41;101390.50;;;11.83;90.66
73651;BME280;61944;52.538;6.108;2023-04-15T11:56:08;101391.13;;;11.73;88.67
73651;BME280;61944;52.538;6.108;2023-04-15T11:58:35;101397.66;;;11.80;89.41
73651;BME280;61944;52.538;6.108;2023-04-15T12:01:05;101387.88;;;11.71;89.05
73651;BME280;61944;52.538;6.108;2023-04-15T12:03:42;101390.97;;;11.43;88.86
73651;BME280;61944;52.538;6.108;2023-04-15T12:06:18;101408.53;;;11.63;89.99
73651;BME280;61944;52.538;6.108;2023-04-15T12:11:50;101411.66;;;11.57;92.42
73651;BME280;61944;52.538;6.108;2023-04-15T12:14:24;101412.41;;;11.54;91.78
73651;BME280;61944;52.538;6.108;2023-04-15T12:16:52;101424.22;;;11.44;93.22
73651;BME280;61944;52.538;6.108;2023-04-15T12:19:25;101435.41;;;11.44;91.81
73651;BME280;61944;52.538;6.108;2023-04-15T12:21:56;101430.28;;;11.27;93.44
73651;BME280;61944;52.538;6.108;2023-04-15T12:24:22;101441.94;;;11.29;92.93
73651;BME280;61944;52.538;6.108;2023-04-15T12:26:50;101438.38;;;11.32;93.01
73651;BME280;61944;52.538;6.108;2023-04-15T12:29:17;101445.41;;;11.22;92.68
73651;BME280;61944;52.538;6.108;2023-04-15T12:31:50;101443.94;;;11.28;93.24
73651;BME280;61944;52.538;6.108;2023-04-15T12:34:17;101436.09;;;11.18;93.80
73651;BME280;61944;52.538;6.108;2023-04-15T12:36:44;101447.53;;;11.09;93.75
73651;BME280;61944;52.538;6.108;2023-04-15T12:39:09;101452.75;;;11.11;94.86
73651;BME280;61944;52.538;6.108;2023-04-15T12:41:34;101446.25;;;11.07;94.29
73651;BME280;61944;52.538;6.108;2023-04-15T12:44:00;101459.47;;;11.06;95.19
73651;BME280;61944;52.538;6.108;2023-04-15T12:46:26;101455.31;;;11.00;96.21
73651;BME280;61944;52.538;6.108;2023-04-15T12:48:52;101459.78;;;11.01;95.51
73651;BME280;61944;52.538;6.108;2023-04-15T12:51:18;101458.44;;;10.95;95.08
73651;BME280;61944;52.538;6.108;2023-04-15T12:53:45;101457.22;;;10.96;94.89
73651;BME280;61944;52.538;6.108;2023-04-15T12:56:12;101469.06;;;11.05;98.89
73651;BME280;61944;52.538;6.108;2023-04-15T12:58:38;101463.13;;;10.91;96.58
73651;BME280;61944;52.538;6.108;2023-04-15T13:01:03;101465.06;;;10.71;97.45
73651;BME280;61944;52.538;6.108;2023-04-15T13:03:28;101462.28;;;10.71;99.26
73651;BME280;61944;52.538;6.108;2023-04-15T13:05:54;101472.97;;;10.65;99.85